Terminal Aerodrome Forecast
Issued by NWS

Home | Current Version | Previous Version | Text Only | Print | Product List | Glossary On
Versions: 1 2 3 4 5 6 7 8 9 10 11 12 13 14 15 16 17 18 19 20 21 22 23 24 25 26 27 28
000
FTUS44 KHGX 042320
TAFCXO
TAF
KCXO 042320Z 0500/0524 14011KT P6SM FEW040
     FM050200 13007KT P6SM SCT200
     FM051000 14004KT P6SM SCT015
      TEMPO 0510/0513 BKN020
     FM051400 13013KT P6SM VCTS SCT025 BKN035CB PROB30 0514/0518
      -TSRA OVC030CB
     FM051800 14013KT P6SM VCTS BKN035CB OVC250
      TEMPO 0518/0521 TSRA BKN025CB OVC080=

USA.gov is the U.S. government's official web portal to all federal, state and local government web resources and services.